KDXR

Danbury Municipal Airport

Airport
ICAO code
KDXR
IATA Code
DXR
Summary
ICAO Region
NAM
ICAO Territory
Location

Danbury, Connecticut

Serving
Danbury
Elevation
458 ft
Coordinates
41° 22' 18" N , 73° 28' 56" W
KCC
Airport WX
Cumulonimbus
Metar
KDXR 140553Z AUTO 20006KT 10SM CLR 22/16 A2992 RMK AO2 SLP127 T02220156 10250 20217 58013 $

Description

Danbury Municipal Airport is a public use general aviation and designated reliever airport located 5 km southwest of the central business district of Danbury, in Fairfield County, Connecticut.

Airport map

Aerial View

SKYbrary Partners:

Safety knowledge contributed by: